sensor_id;sensor_type;location;lat;lon;timestamp;temperature;humidity
4828;DHT22;2428;48.732;9.148;2022-09-09T00:00:18;15.60;99.90
4828;DHT22;2428;48.732;9.148;2022-09-09T00:02:54;15.60;99.90
4828;DHT22;2428;48.732;9.148;2022-09-09T00:05:31;15.60;99.90
4828;DHT22;2428;48.732;9.148;2022-09-09T00:08:00;15.60;99.90
4828;DHT22;2428;48.732;9.148;2022-09-09T00:10:39;15.50;99.90
4828;DHT22;2428;48.732;9.148;2022-09-09T00:13:22;15.50;99.90
4828;DHT22;2428;48.732;9.148;2022-09-09T00:15:59;15.50;99.90
4828;DHT22;2428;48.732;9.148;2022-09-09T00:19:00;15.50;99.90
4828;DHT22;2428;48.732;9.148;2022-09-09T00:21:37;15.50;99.90
4828;DHT22;2428;48.732;9.148;2022-09-09T00:24:34;15.50;99.90
4828;DHT22;2428;48.732;9.148;2022-09-09T00:30:25;15.40;99.90
4828;DHT22;2428;48.732;9.148;2022-09-09T00:32:58;15.50;99.90
4828;DHT22;2428;48.732;9.148;2022-09-09T00:35:31;15.50;99.90
4828;DHT22;2428;48.732;9.148;2022-09-09T00:38:12;15.60;99.90
4828;DHT22;2428;48.732;9.148;2022-09-09T00:48:31;15.60;99.90
4828;DHT22;2428;48.732;9.148;2022-09-09T00:51:08;15.70;99.90
4828;DHT22;2428;48.732;9.148;2022-09-09T00:53:51;15.70;99.90
4828;DHT22;2428;48.732;9.148;2022-09-09T00:56:23;15.80;99.90
4828;DHT22;2428;48.732;9.148;2022-09-09T01:01:43;15.80;99.90
4828;DHT22;2428;48.732;9.148;2022-09-09T01:04:14;15.80;99.90
4828;DHT22;2428;48.732;9.148;2022-09-09T01:06:43;15.80;99.90
4828;DHT22;2428;48.732;9.148;2022-09-09T01:12:15;15.80;99.90
4828;DHT22;2428;48.732;9.148;2022-09-09T01:15:11;15.80;99.90
4828;DHT22;2428;48.732;9.148;2022-09-09T01:26:02;15.80;99.90
4828;DHT22;2428;48.732;9.148;2022-09-09T01:28:30;15.80;99.90
4828;DHT22;2428;48.732;9.148;2022-09-09T01:30:57;15.70;99.90
4828;DHT22;2428;48.732;9.148;2022-09-09T01:33:24;15.70;99.90
4828;DHT22;2428;48.732;9.148;2022-09-09T01:36:13;15.70;99.90
4828;DHT22;2428;48.732;9.148;2022-09-09T01:38:40;15.70;99.90
4828;DHT22;2428;48.732;9.148;2022-09-09T01:41:06;15.70;99.90
4828;DHT22;2428;48.732;9.148;2022-09-09T01:43:32;15.60;99.90
4828;DHT22;2428;48.732;9.148;2022-09-09T01:46:00;15.60;99.90
4828;DHT22;2428;48.732;9.148;2022-09-09T01:48:27;15.70;99.90
4828;DHT22;2428;48.732;9.148;2022-09-09T01:50:52;15.70;99.90
4828;DHT22;2428;48.732;9.148;2022-09-09T01:53:19;15.60;99.90
4828;DHT22;2428;48.732;9.148;2022-09-09T01:59:11;15.60;99.90
4828;DHT22;2428;48.732;9.148;2022-09-09T02:07:00;15.50;99.90
4828;DHT22;2428;48.732;9.148;2022-09-09T02:09:26;15.40;99.90
4828;DHT22;2428;48.732;9.148;2022-09-09T02:12:03;15.40;99.90
4828;DHT22;2428;48.732;9.148;2022-09-09T02:14:36;15.30;99.90
4828;DHT22;2428;48.732;9.148;2022-09-09T02:17:10;15.30;99.90
4828;DHT22;2428;48.732;9.148;2022-09-09T02:19:42;15.30;99.90
4828;DHT22;2428;48.732;9.148;2022-09-09T02:22:11;15.30;99.90
4828;DHT22;2428;48.732;9.148;2022-09-09T02:24:39;15.40;99.90
4828;DHT22;2428;48.732;9.148;2022-09-09T02:27:07;15.30;99.90
4828;DHT22;2428;48.732;9.148;2022-09-09T02:29:38;15.30;99.90
4828;DHT22;2428;48.732;9.148;2022-09-09T02:32:08;15.30;99.90
4828;DHT22;2428;48.732;9.148;2022-09-09T02:34:38;15.20;99.90
4828;DHT22;2428;48.732;9.148;2022-09-09T02:37:06;15.20;99.90
4828;DHT22;2428;48.732;9.148;2022-09-09T02:39:33;15.20;99.90
4828;DHT22;2428;48.732;9.148;2022-09-09T02:41:58;15.20;99.90
4828;DHT22;2428;48.732;9.148;2022-09-09T02:44:25;15.20;99.90
4828;DHT22;2428;48.732;9.148;2022-09-09T02:47:25;15.10;99.90
4828;DHT22;2428;48.732;9.148;2022-09-09T02:50:15;15.10;99.90
4828;DHT22;2428;48.732;9.148;2022-09-09T02:53:11;15.00;99.90
4828;DHT22;2428;48.732;9.148;2022-09-09T02:58:27;14.90;99.90
4828;DHT22;2428;48.732;9.148;2022-09-09T03:00:53;14.90;99.90
4828;DHT22;2428;48.732;9.148;2022-09-09T03:03:19;14.80;99.90
4828;DHT22;2428;48.732;9.148;2022-09-09T03:05:45;14.80;99.90
4828;DHT22;2428;48.732;9.148;2022-09-09T03:08:11;14.80;99.90
4828;DHT22;2428;48.732;9.148;2022-09-09T03:10:38;14.80;99.90
4828;DHT22;2428;48.732;9.148;2022-09-09T03:13:04;14.90;99.90
4828;DHT22;2428;48.732;9.148;2022-09-09T03:15:34;14.90;99.90
4828;DHT22;2428;48.732;9.148;2022-09-09T03:18:00;14.90;99.90
4828;DHT22;2428;48.732;9.148;2022-09-09T03:20:27;14.90;99.90
4828;DHT22;2428;48.732;9.148;2022-09-09T03:22:53;15.00;99.90
4828;DHT22;2428;48.732;9.148;2022-09-09T03:25:19;15.00;99.90
4828;DHT22;2428;48.732;9.148;2022-09-09T03:27:45;15.00;99.90
4828;DHT22;2428;48.732;9.148;2022-09-09T03:30:11;14.90;99.90
4828;DHT22;2428;48.732;9.148;2022-09-09T03:32:37;14.90;99.90
4828;DHT22;2428;48.732;9.148;2022-09-09T03:35:03;14.90;99.90
4828;DHT22;2428;48.732;9.148;2022-09-09T03:37:28;14.90;99.90
4828;DHT22;2428;48.732;9.148;2022-09-09T03:39:54;15.00;99.90
4828;DHT22;2428;48.732;9.148;2022-09-09T03:42:20;14.90;99.90
4828;DHT22;2428;48.732;9.148;2022-09-09T03:44:46;14.90;99.90
4828;DHT22;2428;48.732;9.148;2022-09-09T03:47:21;14.80;99.90
4828;DHT22;2428;48.732;9.148;2022-09-09T03:49:47;14.90;99.90
4828;DHT22;2428;48.732;9.148;2022-09-09T03:52:14;14.90;99.90
4828;DHT22;2428;48.732;9.148;2022-09-09T03:54:40;14.90;99.90
4828;DHT22;2428;48.732;9.148;2022-09-09T03:57:08;14.80;99.90
4828;DHT22;2428;48.732;9.148;2022-09-09T03:59:34;14.80;99.90
4828;DHT22;2428;48.732;9.148;2022-09-09T04:02:00;14.80;99.90
4828;DHT22;2428;48.732;9.148;2022-09-09T04:04:26;14.70;99.90
4828;DHT22;2428;48.732;9.148;2022-09-09T04:06:52;14.70;99.90
4828;DHT22;2428;48.732;9.148;2022-09-09T04:09:18;14.70;99.90
4828;DHT22;2428;48.732;9.148;2022-09-09T04:11:43;14.70;99.90
4828;DHT22;2428;48.732;9.148;2022-09-09T04:14:09;14.70;99.90
4828;DHT22;2428;48.732;9.148;2022-09-09T04:16:35;14.70;99.90
4828;DHT22;2428;48.732;9.148;2022-09-09T04:19:03;14.70;99.90
4828;DHT22;2428;48.732;9.148;2022-09-09T04:21:30;14.80;99.90
4828;DHT22;2428;48.732;9.148;2022-09-09T04:23:55;14.80;99.90
4828;DHT22;2428;48.732;9.148;2022-09-09T04:26:21;14.80;99.90
4828;DHT22;2428;48.732;9.148;2022-09-09T04:28:47;14.80;99.90
4828;DHT22;2428;48.732;9.148;2022-09-09T04:31:19;14.80;99.90
4828;DHT22;2428;48.732;9.148;2022-09-09T04:33:47;14.80;99.90
4828;DHT22;2428;48.732;9.148;2022-09-09T04:36:13;14.80;99.90
4828;DHT22;2428;48.732;9.148;2022-09-09T04:38:39;14.70;99.90
4828;DHT22;2428;48.732;9.148;2022-09-09T04:41:05;14.70;99.90
4828;DHT22;2428;48.732;9.148;2022-09-09T04:43:31;14.70;99.90
4828;DHT22;2428;48.732;9.148;2022-09-09T04:45:57;14.70;99.90
4828;DHT22;2428;48.732;9.148;2022-09-09T04:48:24;14.70;99.90
4828;DHT22;2428;48.732;9.148;2022-09-09T04:50:58;14.60;99.90
4828;DHT22;2428;48.732;9.148;2022-09-09T04:53:24;14.50;99.90
4828;DHT22;2428;48.732;9.148;2022-09-09T04:55:51;14.40;99.90
4828;DHT22;2428;48.732;9.148;2022-09-09T04:58:17;14.30;99.90
4828;DHT22;2428;48.732;9.148;2022-09-09T05:00:43;14.20;99.90
4828;DHT22;2428;48.732;9.148;2022-09-09T05:03:09;14.20;99.90
4828;DHT22;2428;48.732;9.148;2022-09-09T05:05:35;14.20;99.90
4828;DHT22;2428;48.732;9.148;2022-09-09T05:08:02;14.20;99.90
4828;DHT22;2428;48.732;9.148;2022-09-09T05:10:28;14.10;99.90
4828;DHT22;2428;48.732;9.148;2022-09-09T05:12:54;14.20;99.90
4828;DHT22;2428;48.732;9.148;2022-09-09T05:15:20;14.20;99.90
4828;DHT22;2428;48.732;9.148;2022-09-09T05:17:46;14.20;99.90
4828;DHT22;2428;48.732;9.148;2022-09-09T05:20:12;14.30;99.90
4828;DHT22;2428;48.732;9.148;2022-09-09T05:22:37;14.30;99.90
4828;DHT22;2428;48.732;9.148;2022-09-09T05:25:03;14.30;99.90
4828;DHT22;2428;48.732;9.148;2022-09-09T05:27:29;14.40;99.90
4828;DHT22;2428;48.732;9.148;2022-09-09T05:29:57;14.40;99.90
4828;DHT22;2428;48.732;9.148;2022-09-09T05:32:23;14.40;99.90
4828;DHT22;2428;48.732;9.148;2022-09-09T05:34:49;14.40;99.90
4828;DHT22;2428;48.732;9.148;2022-09-09T05:37:15;14.50;99.90
4828;DHT22;2428;48.732;9.148;2022-09-09T05:39:42;14.50;99.90
4828;DHT22;2428;48.732;9.148;2022-09-09T05:42:07;14.50;99.90
4828;DHT22;2428;48.732;9.148;2022-09-09T05:44:33;14.60;99.90
4828;DHT22;2428;48.732;9.148;2022-09-09T05:46:59;14.70;99.90
4828;DHT22;2428;48.732;9.148;2022-09-09T05:49:24;14.70;99.90
4828;DHT22;2428;48.732;9.148;2022-09-09T05:51:50;14.80;99.90
4828;DHT22;2428;48.732;9.148;2022-09-09T05:54:16;14.80;99.90
4828;DHT22;2428;48.732;9.148;2022-09-09T05:56:42;14.90;99.90
4828;DHT22;2428;48.732;9.148;2022-09-09T05:59:11;14.90;99.90
4828;DHT22;2428;48.732;9.148;2022-09-09T06:01:38;15.00;99.90
4828;DHT22;2428;48.732;9.148;2022-09-09T06:04:07;15.00;99.90
4828;DHT22;2428;48.732;9.148;2022-09-09T06:06:35;15.00;99.90
4828;DHT22;2428;48.732;9.148;2022-09-09T06:09:06;15.10;99.90
4828;DHT22;2428;48.732;9.148;2022-09-09T06:11:35;15.10;99.90
4828;DHT22;2428;48.732;9.148;2022-09-09T06:14:01;15.10;99.90
4828;DHT22;2428;48.732;9.148;2022-09-09T06:16:28;15.10;99.90
4828;DHT22;2428;48.732;9.148;2022-09-09T06:18:55;15.20;99.90
4828;DHT22;2428;48.732;9.148;2022-09-09T06:21:29;15.20;99.90
4828;DHT22;2428;48.732;9.148;2022-09-09T06:23:56;15.20;99.90
4828;DHT22;2428;48.732;9.148;2022-09-09T06:26:29;15.30;99.90
4828;DHT22;2428;48.732;9.148;2022-09-09T06:28:56;15.30;99.90
4828;DHT22;2428;48.732;9.148;2022-09-09T06:31:28;15.30;99.90
4828;DHT22;2428;48.732;9.148;2022-09-09T06:33:56;15.30;99.90
4828;DHT22;2428;48.732;9.148;2022-09-09T06:36:27;15.30;99.90
4828;DHT22;2428;48.732;9.148;2022-09-09T06:38:53;15.30;99.90
4828;DHT22;2428;48.732;9.148;2022-09-09T06:41:21;15.40;99.90
4828;DHT22;2428;48.732;9.148;2022-09-09T06:43:48;15.50;99.90
4828;DHT22;2428;48.732;9.148;2022-09-09T06:46:18;15.60;99.90
4828;DHT22;2428;48.732;9.148;2022-09-09T06:48:44;15.60;99.90
4828;DHT22;2428;48.732;9.148;2022-09-09T06:53:38;15.70;99.90
4828;DHT22;2428;48.732;9.148;2022-09-09T06:58:42;15.80;99.90
4828;DHT22;2428;48.732;9.148;2022-09-09T07:01:10;15.90;99.90
4828;DHT22;2428;48.732;9.148;2022-09-09T07:03:38;16.00;99.90
4828;DHT22;2428;48.732;9.148;2022-09-09T07:06:04;16.10;99.90
4828;DHT22;2428;48.732;9.148;2022-09-09T07:08:30;16.10;99.90
4828;DHT22;2428;48.732;9.148;2022-09-09T07:11:07;16.20;99.90
4828;DHT22;2428;48.732;9.148;2022-09-09T07:13:33;16.20;99.90
4828;DHT22;2428;48.732;9.148;2022-09-09T07:16:07;16.30;99.90
4828;DHT22;2428;48.732;9.148;2022-09-09T07:18:33;16.30;99.90
4828;DHT22;2428;48.732;9.148;2022-09-09T07:21:00;16.40;99.90
4828;DHT22;2428;48.732;9.148;2022-09-09T07:23:27;16.40;99.90
4828;DHT22;2428;48.732;9.148;2022-09-09T07:25:53;16.50;99.90
4828;DHT22;2428;48.732;9.148;2022-09-09T07:28:20;16.60;99.90
4828;DHT22;2428;48.732;9.148;2022-09-09T07:30:55;16.60;99.90
4828;DHT22;2428;48.732;9.148;2022-09-09T07:33:21;16.60;99.90
4828;DHT22;2428;48.732;9.148;2022-09-09T07:35:47;16.60;99.90
4828;DHT22;2428;48.732;9.148;2022-09-09T07:38:13;16.60;99.90
4828;DHT22;2428;48.732;9.148;2022-09-09T07:40:40;16.70;99.90
4828;DHT22;2428;48.732;9.148;2022-09-09T07:43:05;16.70;99.90
4828;DHT22;2428;48.732;9.148;2022-09-09T07:45:31;16.80;99.90
4828;DHT22;2428;48.732;9.148;2022-09-09T07:47:58;16.90;99.90
4828;DHT22;2428;48.732;9.148;2022-09-09T07:50:25;17.00;99.90
4828;DHT22;2428;48.732;9.148;2022-09-09T07:52:51;17.00;99.90
4828;DHT22;2428;48.732;9.148;2022-09-09T07:55:17;17.00;99.90
4828;DHT22;2428;48.732;9.148;2022-09-09T07:57:43;17.00;99.90
4828;DHT22;2428;48.732;9.148;2022-09-09T08:00:09;17.00;99.90
4828;DHT22;2428;48.732;9.148;2022-09-09T08:02:36;17.10;99.90
4828;DHT22;2428;48.732;9.148;2022-09-09T08:05:01;17.20;99.90
4828;DHT22;2428;48.732;9.148;2022-09-09T08:07:27;17.20;99.90
4828;DHT22;2428;48.732;9.148;2022-09-09T08:09:53;17.30;99.90
4828;DHT22;2428;48.732;9.148;2022-09-09T08:12:21;17.20;99.90
4828;DHT22;2428;48.732;9.148;2022-09-09T08:14:46;17.20;99.90
4828;DHT22;2428;48.732;9.148;2022-09-09T08:17:13;17.30;99.90
4828;DHT22;2428;48.732;9.148;2022-09-09T08:19:39;17.40;99.90
4828;DHT22;2428;48.732;9.148;2022-09-09T08:22:05;17.50;99.90
4828;DHT22;2428;48.732;9.148;2022-09-09T08:24:30;17.60;99.90
4828;DHT22;2428;48.732;9.148;2022-09-09T08:26:56;17.70;99.90
4828;DHT22;2428;48.732;9.148;2022-09-09T08:29:22;17.80;99.90
4828;DHT22;2428;48.732;9.148;2022-09-09T08:31:50;17.80;99.90
4828;DHT22;2428;48.732;9.148;2022-09-09T08:34:17;17.80;99.90
4828;DHT22;2428;48.732;9.148;2022-09-09T08:36:46;17.80;99.90
4828;DHT22;2428;48.732;9.148;2022-09-09T08:39:14;17.90;99.90
4828;DHT22;2428;48.732;9.148;2022-09-09T08:54:51;18.20;99.90
4828;DHT22;2428;48.732;9.148;2022-09-09T08:57:27;18.30;99.90
4828;DHT22;2428;48.732;9.148;2022-09-09T08:59:54;18.40;99.90
4828;DHT22;2428;48.732;9.148;2022-09-09T09:05:25;18.60;99.90
4828;DHT22;2428;48.732;9.148;2022-09-09T09:08:26;18.80;99.90
4828;DHT22;2428;48.732;9.148;2022-09-09T09:10:56;18.80;99.90
4828;DHT22;2428;48.732;9.148;2022-09-09T09:13:40;18.70;99.90
4828;DHT22;2428;48.732;9.148;2022-09-09T09:16:27;18.70;99.90
4828;DHT22;2428;48.732;9.148;2022-09-09T09:18:58;18.60;99.90
4828;DHT22;2428;48.732;9.148;2022-09-09T09:21:43;18.20;99.90
4828;DHT22;2428;48.732;9.148;2022-09-09T09:26:44;17.50;99.90
4828;DHT22;2428;48.732;9.148;2022-09-09T09:29:21;17.10;99.90
4828;DHT22;2428;48.732;9.148;2022-09-09T09:31:55;16.40;99.90
4828;DHT22;2428;48.732;9.148;2022-09-09T09:34:23;15.90;99.90
4828;DHT22;2428;48.732;9.148;2022-09-09T09:37:00;15.70;99.90
4828;DHT22;2428;48.732;9.148;2022-09-09T09:39:31;15.60;99.90
4828;DHT22;2428;48.732;9.148;2022-09-09T09:42:12;15.70;99.90
4828;DHT22;2428;48.732;9.148;2022-09-09T09:44:41;15.80;99.90
4828;DHT22;2428;48.732;9.148;2022-09-09T09:47:14;16.00;99.90
4828;DHT22;2428;48.732;9.148;2022-09-09T09:49:54;16.10;99.90
4828;DHT22;2428;48.732;9.148;2022-09-09T09:52:23;16.20;99.90
4828;DHT22;2428;48.732;9.148;2022-09-09T09:54:50;16.30;99.90
4828;DHT22;2428;48.732;9.148;2022-09-09T09:57:18;16.40;99.90
4828;DHT22;2428;48.732;9.148;2022-09-09T09:59:45;16.60;99.90
4828;DHT22;2428;48.732;9.148;2022-09-09T10:04:46;17.60;99.90
4828;DHT22;2428;48.732;9.148;2022-09-09T10:07:20;18.10;99.90
4828;DHT22;2428;48.732;9.148;2022-09-09T10:09:54;18.50;99.90
4828;DHT22;2428;48.732;9.148;2022-09-09T10:17:39;18.60;99.90
4828;DHT22;2428;48.732;9.148;2022-09-09T10:22:35;19.00;99.90
4828;DHT22;2428;48.732;9.148;2022-09-09T10:25:31;19.40;99.90
4828;DHT22;2428;48.732;9.148;2022-09-09T10:28:18;20.00;99.90
4828;DHT22;2428;48.732;9.148;2022-09-09T10:33:55;21.40;99.90
4828;DHT22;2428;48.732;9.148;2022-09-09T10:36:25;22.10;99.90
4828;DHT22;2428;48.732;9.148;2022-09-09T10:38:57;22.10;99.90
4828;DHT22;2428;48.732;9.148;2022-09-09T10:41:55;22.60;99.90
4828;DHT22;2428;48.732;9.148;2022-09-09T10:56:04;21.20;99.90
4828;DHT22;2428;48.732;9.148;2022-09-09T10:59:40;20.70;99.90
4828;DHT22;2428;48.732;9.148;2022-09-09T11:01:54;21.50;99.90
4828;DHT22;2428;48.732;9.148;2022-09-09T11:04:55;22.30;99.90
4828;DHT22;2428;48.732;9.148;2022-09-09T11:07:26;22.30;99.90
4828;DHT22;2428;48.732;9.148;2022-09-09T11:09:58;21.50;99.90
4828;DHT22;2428;48.732;9.148;2022-09-09T11:12:27;20.90;99.90
4828;DHT22;2428;48.732;9.148;2022-09-09T11:15:15;20.70;99.90
4828;DHT22;2428;48.732;9.148;2022-09-09T11:17:58;20.60;99.90
4828;DHT22;2428;48.732;9.148;2022-09-09T11:20:26;20.40;99.90
4828;DHT22;2428;48.732;9.148;2022-09-09T11:23:03;20.30;99.90
4828;DHT22;2428;48.732;9.148;2022-09-09T11:25:36;19.90;99.90
4828;DHT22;2428;48.732;9.148;2022-09-09T11:40:30;18.50;99.90
4828;DHT22;2428;48.732;9.148;2022-09-09T11:45:29;18.50;99.90
4828;DHT22;2428;48.732;9.148;2022-09-09T11:48:00;18.40;99.90
4828;DHT22;2428;48.732;9.148;2022-09-09T11:53:04;18.20;99.90
4828;DHT22;2428;48.732;9.148;2022-09-09T11:55:32;18.20;99.90
4828;DHT22;2428;48.732;9.148;2022-09-09T12:00:38;18.60;99.90
4828;DHT22;2428;48.732;9.148;2022-09-09T12:03:06;18.80;99.90
4828;DHT22;2428;48.732;9.148;2022-09-09T12:05:51;18.80;99.90
4828;DHT22;2428;48.732;9.148;2022-09-09T12:08:26;18.60;99.90
4828;DHT22;2428;48.732;9.148;2022-09-09T12:10:57;18.40;99.90
4828;DHT22;2428;48.732;9.148;2022-09-09T12:13:26;18.30;99.90
4828;DHT22;2428;48.732;9.148;2022-09-09T12:15:56;18.40;99.90
4828;DHT22;2428;48.732;9.148;2022-09-09T12:24:03;19.10;99.90
4828;DHT22;2428;48.732;9.148;2022-09-09T12:26:32;19.20;99.90
4828;DHT22;2428;48.732;9.148;2022-09-09T12:29:24;19.30;99.90
4828;DHT22;2428;48.732;9.148;2022-09-09T12:32:07;19.50;99.90
4828;DHT22;2428;48.732;9.148;2022-09-09T12:34:51;19.50;99.90
4828;DHT22;2428;48.732;9.148;2022-09-09T12:37:34;19.60;99.90
4828;DHT22;2428;48.732;9.148;2022-09-09T12:40:03;19.50;99.90
4828;DHT22;2428;48.732;9.148;2022-09-09T12:42:30;19.60;99.90
4828;DHT22;2428;48.732;9.148;2022-09-09T12:45:01;19.60;99.90
4828;DHT22;2428;48.732;9.148;2022-09-09T12:47:41;19.50;99.90
4828;DHT22;2428;48.732;9.148;2022-09-09T12:50:30;19.40;99.90
4828;DHT22;2428;48.732;9.148;2022-09-09T12:53:01;19.40;99.90
4828;DHT22;2428;48.732;9.148;2022-09-09T12:55:30;19.40;99.90
4828;DHT22;2428;48.732;9.148;2022-09-09T12:57:57;19.40;99.90
4828;DHT22;2428;48.732;9.148;2022-09-09T13:00:25;19.30;99.90
4828;DHT22;2428;48.732;9.148;2022-09-09T13:03:00;19.20;99.90
4828;DHT22;2428;48.732;9.148;2022-09-09T13:05:35;19.20;99.90
4828;DHT22;2428;48.732;9.148;2022-09-09T13:08:09;19.20;99.90
4828;DHT22;2428;48.732;9.148;2022-09-09T13:13:21;19.20;99.90
4828;DHT22;2428;48.732;9.148;2022-09-09T13:15:53;19.10;99.90
4828;DHT22;2428;48.732;9.148;2022-09-09T13:18:22;19.20;99.90
4828;DHT22;2428;48.732;9.148;2022-09-09T13:20:50;19.30;99.90
4828;DHT22;2428;48.732;9.148;2022-09-09T13:23:18;19.60;99.90
4828;DHT22;2428;48.732;9.148;2022-09-09T13:25:59;19.80;99.90
4828;DHT22;2428;48.732;9.148;2022-09-09T13:28:28;20.00;99.90
4828;DHT22;2428;48.732;9.148;2022-09-09T13:31:02;20.10;99.90
4828;DHT22;2428;48.732;9.148;2022-09-09T13:33:37;20.10;99.90
4828;DHT22;2428;48.732;9.148;2022-09-09T13:38:33;20.20;99.90
4828;DHT22;2428;48.732;9.148;2022-09-09T13:41:02;20.00;99.90
4828;DHT22;2428;48.732;9.148;2022-09-09T13:43:44;19.90;99.90
4828;DHT22;2428;48.732;9.148;2022-09-09T13:46:35;19.80;99.90
4828;DHT22;2428;48.732;9.148;2022-09-09T13:49:19;19.90;99.90
4828;DHT22;2428;48.732;9.148;2022-09-09T13:51:47;20.10;99.90
4828;DHT22;2428;48.732;9.148;2022-09-09T13:54:14;20.30;99.90
4828;DHT22;2428;48.732;9.148;2022-09-09T13:56:41;20.40;99.90
4828;DHT22;2428;48.732;9.148;2022-09-09T13:59:25;20.40;99.90
4828;DHT22;2428;48.732;9.148;2022-09-09T14:01:51;20.60;99.90
4828;DHT22;2428;48.732;9.148;2022-09-09T14:04:18;20.70;99.90
4828;DHT22;2428;48.732;9.148;2022-09-09T14:06:46;20.90;99.90
4828;DHT22;2428;48.732;9.148;2022-09-09T14:09:13;21.10;99.90
4828;DHT22;2428;48.732;9.148;2022-09-09T14:11:39;21.10;99.90
4828;DHT22;2428;48.732;9.148;2022-09-09T14:14:05;21.10;99.90
4828;DHT22;2428;48.732;9.148;2022-09-09T14:16:31;21.00;99.90
4828;DHT22;2428;48.732;9.148;2022-09-09T14:18:57;21.10;99.90
4828;DHT22;2428;48.732;9.148;2022-09-09T14:21:23;21.20;99.90
4828;DHT22;2428;48.732;9.148;2022-09-09T14:23:49;21.10;99.90
4828;DHT22;2428;48.732;9.148;2022-09-09T14:26:14;21.20;99.90
4828;DHT22;2428;48.732;9.148;2022-09-09T14:28:40;21.40;99.90
4828;DHT22;2428;48.732;9.148;2022-09-09T14:31:06;21.50;99.90
4828;DHT22;2428;48.732;9.148;2022-09-09T14:33:32;21.50;99.90
4828;DHT22;2428;48.732;9.148;2022-09-09T14:36:00;21.60;99.90
4828;DHT22;2428;48.732;9.148;2022-09-09T14:38:29;21.30;99.90
4828;DHT22;2428;48.732;9.148;2022-09-09T14:40:55;21.30;99.90
4828;DHT22;2428;48.732;9.148;2022-09-09T14:43:21;21.20;99.90
4828;DHT22;2428;48.732;9.148;2022-09-09T14:45:47;21.00;99.90
4828;DHT22;2428;48.732;9.148;2022-09-09T14:48:14;20.90;99.90
4828;DHT22;2428;48.732;9.148;2022-09-09T14:50:40;20.80;99.90
4828;DHT22;2428;48.732;9.148;2022-09-09T14:53:06;20.80;99.90
4828;DHT22;2428;48.732;9.148;2022-09-09T14:55:32;20.90;99.90
4828;DHT22;2428;48.732;9.148;2022-09-09T14:57:58;21.00;99.90
4828;DHT22;2428;48.732;9.148;2022-09-09T15:00:24;21.00;99.90
4828;DHT22;2428;48.732;9.148;2022-09-09T15:02:55;21.10;99.90
4828;DHT22;2428;48.732;9.148;2022-09-09T15:05:21;21.00;99.90
4828;DHT22;2428;48.732;9.148;2022-09-09T15:07:47;21.20;99.90
4828;DHT22;2428;48.732;9.148;2022-09-09T15:10:16;21.40;99.90
4828;DHT22;2428;48.732;9.148;2022-09-09T15:12:43;21.50;99.90
4828;DHT22;2428;48.732;9.148;2022-09-09T15:15:09;21.50;99.90
4828;DHT22;2428;48.732;9.148;2022-09-09T15:17:34;21.30;99.90
4828;DHT22;2428;48.732;9.148;2022-09-09T15:20:05;20.80;99.90
4828;DHT22;2428;48.732;9.148;2022-09-09T15:22:31;20.70;99.90
4828;DHT22;2428;48.732;9.148;2022-09-09T15:24:57;20.70;99.90
4828;DHT22;2428;48.732;9.148;2022-09-09T15:27:23;20.60;99.90
4828;DHT22;2428;48.732;9.148;2022-09-09T15:29:49;20.70;99.90
4828;DHT22;2428;48.732;9.148;2022-09-09T15:32:15;20.80;99.90
4828;DHT22;2428;48.732;9.148;2022-09-09T15:34:41;20.90;99.90
4828;DHT22;2428;48.732;9.148;2022-09-09T15:37:10;21.00;99.90
4828;DHT22;2428;48.732;9.148;2022-09-09T15:39:36;21.10;99.90
4828;DHT22;2428;48.732;9.148;2022-09-09T15:42:01;20.90;99.90
4828;DHT22;2428;48.732;9.148;2022-09-09T15:44:27;20.70;99.90
4828;DHT22;2428;48.732;9.148;2022-09-09T15:46:53;20.60;99.90
4828;DHT22;2428;48.732;9.148;2022-09-09T15:49:23;20.40;99.90
4828;DHT22;2428;48.732;9.148;2022-09-09T15:51:53;20.30;99.90
4828;DHT22;2428;48.732;9.148;2022-09-09T15:54:22;20.20;99.90
4828;DHT22;2428;48.732;9.148;2022-09-09T15:56:53;20.10;99.90
4828;DHT22;2428;48.732;9.148;2022-09-09T15:59:21;20.00;99.90
4828;DHT22;2428;48.732;9.148;2022-09-09T16:01:48;20.00;99.90
4828;DHT22;2428;48.732;9.148;2022-09-09T16:04:19;19.90;99.90
4828;DHT22;2428;48.732;9.148;2022-09-09T16:06:50;19.90;99.90
4828;DHT22;2428;48.732;9.148;2022-09-09T16:09:16;19.80;99.90
4828;DHT22;2428;48.732;9.148;2022-09-09T16:11:41;19.70;99.90
4828;DHT22;2428;48.732;9.148;2022-09-09T16:14:07;19.70;99.90
4828;DHT22;2428;48.732;9.148;2022-09-09T16:16:34;19.70;99.90
4828;DHT22;2428;48.732;9.148;2022-09-09T16:19:06;19.60;99.90
4828;DHT22;2428;48.732;9.148;2022-09-09T16:21:38;19.60;99.90
4828;DHT22;2428;48.732;9.148;2022-09-09T16:24:06;19.60;99.90
4828;DHT22;2428;48.732;9.148;2022-09-09T16:26:35;19.50;99.90
4828;DHT22;2428;48.732;9.148;2022-09-09T16:29:01;19.50;99.90
4828;DHT22;2428;48.732;9.148;2022-09-09T16:31:29;19.50;99.90
4828;DHT22;2428;48.732;9.148;2022-09-09T16:33:55;19.40;99.90
4828;DHT22;2428;48.732;9.148;2022-09-09T16:36:23;19.50;99.90
4828;DHT22;2428;48.732;9.148;2022-09-09T16:38:53;19.50;99.90
4828;DHT22;2428;48.732;9.148;2022-09-09T16:41:20;19.40;99.90
4828;DHT22;2428;48.732;9.148;2022-09-09T16:43:46;19.20;99.90
4828;DHT22;2428;48.732;9.148;2022-09-09T16:46:19;19.10;99.90
4828;DHT22;2428;48.732;9.148;2022-09-09T16:48:46;19.00;99.90
4828;DHT22;2428;48.732;9.148;2022-09-09T16:51:15;18.90;99.90
4828;DHT22;2428;48.732;9.148;2022-09-09T16:53:42;18.80;99.90
4828;DHT22;2428;48.732;9.148;2022-09-09T16:56:10;18.80;99.90
4828;DHT22;2428;48.732;9.148;2022-09-09T16:58:36;18.70;99.90
4828;DHT22;2428;48.732;9.148;2022-09-09T17:01:02;18.60;99.90
4828;DHT22;2428;48.732;9.148;2022-09-09T17:03:29;18.50;99.90
4828;DHT22;2428;48.732;9.148;2022-09-09T17:05:55;18.40;99.90
4828;DHT22;2428;48.732;9.148;2022-09-09T17:08:23;18.40;99.90
4828;DHT22;2428;48.732;9.148;2022-09-09T17:10:49;18.40;99.90
4828;DHT22;2428;48.732;9.148;2022-09-09T17:13:16;18.30;99.90
4828;DHT22;2428;48.732;9.148;2022-09-09T17:15:45;18.30;99.90
4828;DHT22;2428;48.732;9.148;2022-09-09T17:18:12;18.20;99.90
4828;DHT22;2428;48.732;9.148;2022-09-09T17:20:39;18.20;99.90
4828;DHT22;2428;48.732;9.148;2022-09-09T17:23:07;18.20;99.90
4828;DHT22;2428;48.732;9.148;2022-09-09T17:25:32;18.10;99.90
4828;DHT22;2428;48.732;9.148;2022-09-09T17:27:59;18.10;99.90
4828;DHT22;2428;48.732;9.148;2022-09-09T17:30:25;18.00;99.90
4828;DHT22;2428;48.732;9.148;2022-09-09T17:32:51;17.90;99.90
4828;DHT22;2428;48.732;9.148;2022-09-09T17:35:17;17.80;99.90
4828;DHT22;2428;48.732;9.148;2022-09-09T17:37:43;17.80;99.90
4828;DHT22;2428;48.732;9.148;2022-09-09T17:40:10;17.70;99.90
4828;DHT22;2428;48.732;9.148;2022-09-09T17:42:36;17.70;99.90
4828;DHT22;2428;48.732;9.148;2022-09-09T17:45:01;17.60;99.90
4828;DHT22;2428;48.732;9.148;2022-09-09T17:47:27;17.60;99.90
4828;DHT22;2428;48.732;9.148;2022-09-09T17:49:54;17.60;99.90
4828;DHT22;2428;48.732;9.148;2022-09-09T17:52:19;17.60;99.90
4828;DHT22;2428;48.732;9.148;2022-09-09T17:54:45;17.50;99.90
4828;DHT22;2428;48.732;9.148;2022-09-09T17:57:11;17.50;99.90
4828;DHT22;2428;48.732;9.148;2022-09-09T18:02:13;17.50;99.90
4828;DHT22;2428;48.732;9.148;2022-09-09T18:04:39;17.50;99.90
4828;DHT22;2428;48.732;9.148;2022-09-09T18:07:05;17.40;99.90
4828;DHT22;2428;48.732;9.148;2022-09-09T18:09:31;17.40;99.90
4828;DHT22;2428;48.732;9.148;2022-09-09T18:11:58;17.40;99.90
4828;DHT22;2428;48.732;9.148;2022-09-09T18:14:27;17.40;99.90
4828;DHT22;2428;48.732;9.148;2022-09-09T18:16:54;17.40;99.90